Yeagertown, Pennsylvania
Current Conditions -  °F | °C
As of 12:15 AM on Saturday 20 Dec 2014 (Local Time) from KUNV Reporting Station
Clear Clear  
Wind Chill: 20°   Ceiling: Unl
Heat Index: 25°   Visibility: 10mi
Dew Point: 18°   Wind: 5mph
Humidity: 74%   Direction: 340°NNW
Pressure: 30.2"   Gusts: NA
Location:  40.64°N, 77.58°W
Report Text: KUNV 200515Z AUTO 34004KT 10SM CLR M04/M08 A3020 RMK AO2 T10371078
Loading
Personal Weather Stations






























Interactive Weather Map New forecast layout! Learn more

10-Day Weather Forecast

Advertisements
Track Severe Weather on mobile